sensor_id;sensor_type;location;lat;lon;timestamp;pressure;altitude;pressure_sealevel;temperature
75428;BMP280;64008;55.612;37.698;2023-03-01T00:00:40;98798.78;;;23.76
75428;BMP280;64008;55.612;37.698;2023-03-01T00:03:05;98801.50;;;23.63
75428;BMP280;64008;55.612;37.698;2023-03-01T00:05:31;98793.66;;;23.58
75428;BMP280;64008;55.612;37.698;2023-03-01T00:07:57;98789.19;;;23.50
75428;BMP280;64008;55.612;37.698;2023-03-01T00:10:23;98796.91;;;23.64
75428;BMP280;64008;55.612;37.698;2023-03-01T00:12:48;98789.34;;;23.70
75428;BMP280;64008;55.612;37.698;2023-03-01T00:15:14;98794.50;;;23.75
75428;BMP280;64008;55.612;37.698;2023-03-01T00:17:39;98788.09;;;23.79
75428;BMP280;64008;55.612;37.698;2023-03-01T00:20:05;98791.34;;;23.73
75428;BMP280;64008;55.612;37.698;2023-03-01T00:22:36;98789.63;;;23.65
75428;BMP280;64008;55.612;37.698;2023-03-01T00:25:01;98792.41;;;23.68
75428;BMP280;64008;55.612;37.698;2023-03-01T00:27:27;98780.22;;;23.74
75428;BMP280;64008;55.612;37.698;2023-03-01T00:29:52;98779.00;;;23.72
75428;BMP280;64008;55.612;37.698;2023-03-01T00:32:18;98774.06;;;23.74
75428;BMP280;64008;55.612;37.698;2023-03-01T00:34:43;98767.09;;;23.73
75428;BMP280;64008;55.612;37.698;2023-03-01T00:37:22;98776.63;;;23.70
75428;BMP280;64008;55.612;37.698;2023-03-01T00:39:48;98775.03;;;23.81
75428;BMP280;64008;55.612;37.698;2023-03-01T00:42:14;98773.47;;;23.80
75428;BMP280;64008;55.612;37.698;2023-03-01T00:44:39;98779.47;;;23.74
75428;BMP280;64008;55.612;37.698;2023-03-01T00:47:05;98770.91;;;23.72
75428;BMP280;64008;55.612;37.698;2023-03-01T00:49:30;98773.66;;;23.59
75428;BMP280;64008;55.612;37.698;2023-03-01T00:51:56;98773.19;;;23.57
75428;BMP280;64008;55.612;37.698;2023-03-01T00:54:21;98774.56;;;23.51
75428;BMP280;64008;55.612;37.698;2023-03-01T00:56:47;98778.66;;;23.45
75428;BMP280;64008;55.612;37.698;2023-03-01T00:59:12;98782.44;;;23.56
75428;BMP280;64008;55.612;37.698;2023-03-01T01:01:38;98795.56;;;23.58
75428;BMP280;64008;55.612;37.698;2023-03-01T01:04:09;98781.19;;;23.54
75428;BMP280;64008;55.612;37.698;2023-03-01T01:06:38;98771.19;;;23.54
75428;BMP280;64008;55.612;37.698;2023-03-01T01:09:05;98780.19;;;23.46
75428;BMP280;64008;55.612;37.698;2023-03-01T01:11:32;98780.88;;;23.55
75428;BMP280;64008;55.612;37.698;2023-03-01T01:13:58;98780.88;;;23.55
75428;BMP280;64008;55.612;37.698;2023-03-01T01:16:25;98773.44;;;23.65
75428;BMP280;64008;55.612;37.698;2023-03-01T01:18:51;98763.31;;;23.61
75428;BMP280;64008;55.612;37.698;2023-03-01T01:21:19;98779.47;;;23.61
75428;BMP280;64008;55.612;37.698;2023-03-01T01:23:46;98766.72;;;23.46
75428;BMP280;64008;55.612;37.698;2023-03-01T01:26:17;98771.53;;;23.53
75428;BMP280;64008;55.612;37.698;2023-03-01T01:28:43;98773.16;;;23.41
75428;BMP280;64008;55.612;37.698;2023-03-01T01:31:09;98773.84;;;23.67
75428;BMP280;64008;55.612;37.698;2023-03-01T01:33:35;98771.66;;;23.56
75428;BMP280;64008;55.612;37.698;2023-03-01T01:36:00;98765.97;;;23.74
75428;BMP280;64008;55.612;37.698;2023-03-01T01:38:26;98772.06;;;23.71
75428;BMP280;64008;55.612;37.698;2023-03-01T01:40:51;98777.94;;;23.60
75428;BMP280;64008;55.612;37.698;2023-03-01T01:43:32;98775.22;;;23.60
75428;BMP280;64008;55.612;37.698;2023-03-01T01:46:02;98773.44;;;23.65
75428;BMP280;64008;55.612;37.698;2023-03-01T01:48:37;98774.09;;;23.61
75428;BMP280;64008;55.612;37.698;2023-03-01T01:51:07;98770.47;;;23.70
75428;BMP280;64008;55.612;37.698;2023-03-01T01:53:35;98774.88;;;23.62
75428;BMP280;64008;55.612;37.698;2023-03-01T01:56:01;98779.09;;;23.47
75428;BMP280;64008;55.612;37.698;2023-03-01T01:58:29;98784.75;;;23.42
75428;BMP280;64008;55.612;37.698;2023-03-01T02:00:55;98770.00;;;23.52
75428;BMP280;64008;55.612;37.698;2023-03-01T02:03:27;98785.59;;;23.46
75428;BMP280;64008;55.612;37.698;2023-03-01T02:08:25;98787.53;;;23.46
75428;BMP280;64008;55.612;37.698;2023-03-01T02:10:53;98784.75;;;23.30
75428;BMP280;64008;55.612;37.698;2023-03-01T02:13:20;98773.53;;;23.28
75428;BMP280;64008;55.612;37.698;2023-03-01T02:15:45;98769.28;;;23.27
75428;BMP280;64008;55.612;37.698;2023-03-01T02:18:14;98770.38;;;23.38
75428;BMP280;64008;55.612;37.698;2023-03-01T02:23:38;98772.00;;;23.55
75428;BMP280;64008;55.612;37.698;2023-03-01T02:28:37;98780.78;;;23.39
75428;BMP280;64008;55.612;37.698;2023-03-01T02:31:05;98763.50;;;23.40
75428;BMP280;64008;55.612;37.698;2023-03-01T02:33:50;98783.97;;;23.29
75428;BMP280;64008;55.612;37.698;2023-03-01T02:36:19;98785.88;;;23.29
75428;BMP280;64008;55.612;37.698;2023-03-01T02:38:46;98781.59;;;23.28
75428;BMP280;64008;55.612;37.698;2023-03-01T02:41:15;98792.50;;;23.31
75428;BMP280;64008;55.612;37.698;2023-03-01T02:43:41;98794.72;;;23.41
75428;BMP280;64008;55.612;37.698;2023-03-01T02:46:13;98780.88;;;23.43
75428;BMP280;64008;55.612;37.698;2023-03-01T02:48:47;98788.72;;;23.60
75428;BMP280;64008;55.612;37.698;2023-03-01T02:51:25;98783.06;;;23.37
75428;BMP280;64008;55.612;37.698;2023-03-01T02:56:38;98797.97;;;23.47
75428;BMP280;64008;55.612;37.698;2023-03-01T02:59:04;98781.56;;;23.52
75428;BMP280;64008;55.612;37.698;2023-03-01T03:01:30;98794.06;;;23.73
75428;BMP280;64008;55.612;37.698;2023-03-01T03:04:07;98789.53;;;23.61
75428;BMP280;64008;55.612;37.698;2023-03-01T03:06:35;98792.22;;;23.61
75428;BMP280;64008;55.612;37.698;2023-03-01T03:09:01;98790.97;;;23.58
75428;BMP280;64008;55.612;37.698;2023-03-01T03:11:27;98789.88;;;23.47
75428;BMP280;64008;55.612;37.698;2023-03-01T03:13:53;98793.91;;;23.53
75428;BMP280;64008;55.612;37.698;2023-03-01T03:16:19;98792.56;;;23.47
75428;BMP280;64008;55.612;37.698;2023-03-01T03:18:44;98796.19;;;23.39
75428;BMP280;64008;55.612;37.698;2023-03-01T03:21:12;98801.34;;;23.44
75428;BMP280;64008;55.612;37.698;2023-03-01T03:23:38;98789.31;;;23.41
75428;BMP280;64008;55.612;37.698;2023-03-01T03:26:05;98790.56;;;23.44
75428;BMP280;64008;55.612;37.698;2023-03-01T03:28:32;98792.34;;;23.40
75428;BMP280;64008;55.612;37.698;2023-03-01T03:30:59;98798.78;;;23.35
75428;BMP280;64008;55.612;37.698;2023-03-01T03:33:29;98805.97;;;23.44
75428;BMP280;64008;55.612;37.698;2023-03-01T03:35:55;98803.38;;;23.35
75428;BMP280;64008;55.612;37.698;2023-03-01T03:38:20;98799.16;;;23.22
75428;BMP280;64008;55.612;37.698;2023-03-01T03:41:06;98799.66;;;23.39
75428;BMP280;64008;55.612;37.698;2023-03-01T03:43:34;98804.38;;;23.42
75428;BMP280;64008;55.612;37.698;2023-03-01T03:46:00;98808.84;;;23.51
75428;BMP280;64008;55.612;37.698;2023-03-01T03:48:31;98806.41;;;23.46
75428;BMP280;64008;55.612;37.698;2023-03-01T03:50:58;98808.00;;;23.34
75428;BMP280;64008;55.612;37.698;2023-03-01T03:53:25;98810.03;;;23.37
75428;BMP280;64008;55.612;37.698;2023-03-01T03:55:51;98811.44;;;23.35
75428;BMP280;64008;55.612;37.698;2023-03-01T03:58:18;98814.50;;;23.33
75428;BMP280;64008;55.612;37.698;2023-03-01T04:00:46;98815.91;;;23.55
75428;BMP280;64008;55.612;37.698;2023-03-01T04:03:13;98808.19;;;23.41
75428;BMP280;64008;55.612;37.698;2023-03-01T04:05:40;98807.63;;;23.48
75428;BMP280;64008;55.612;37.698;2023-03-01T04:08:07;98809.75;;;23.42
75428;BMP280;64008;55.612;37.698;2023-03-01T04:10:39;98808.50;;;23.52
75428;BMP280;64008;55.612;37.698;2023-03-01T04:13:06;98810.53;;;23.43
75428;BMP280;64008;55.612;37.698;2023-03-01T04:15:33;98815.25;;;23.46
75428;BMP280;64008;55.612;37.698;2023-03-01T04:17:59;98813.41;;;23.34
75428;BMP280;64008;55.612;37.698;2023-03-01T04:20:27;98812.63;;;23.34
75428;BMP280;64008;55.612;37.698;2023-03-01T04:23:03;98821.81;;;23.33
75428;BMP280;64008;55.612;37.698;2023-03-01T04:25:40;98821.13;;;23.36
75428;BMP280;64008;55.612;37.698;2023-03-01T04:28:07;98816.56;;;23.24
75428;BMP280;64008;55.612;37.698;2023-03-01T04:30:33;98829.38;;;23.27
75428;BMP280;64008;55.612;37.698;2023-03-01T04:33:10;98827.88;;;23.30
75428;BMP280;64008;55.612;37.698;2023-03-01T04:35:37;98827.88;;;23.42
75428;BMP280;64008;55.612;37.698;2023-03-01T04:38:03;98825.59;;;23.44
75428;BMP280;64008;55.612;37.698;2023-03-01T04:40:29;98830.09;;;23.40
75428;BMP280;64008;55.612;37.698;2023-03-01T04:42:55;98834.28;;;23.37
75428;BMP280;64008;55.612;37.698;2023-03-01T04:45:20;98832.38;;;23.38
75428;BMP280;64008;55.612;37.698;2023-03-01T04:47:46;98834.19;;;23.34
75428;BMP280;64008;55.612;37.698;2023-03-01T04:50:14;98833.69;;;23.44
75428;BMP280;64008;55.612;37.698;2023-03-01T04:52:41;98836.06;;;23.46
75428;BMP280;64008;55.612;37.698;2023-03-01T04:55:06;98829.91;;;23.33
75428;BMP280;64008;55.612;37.698;2023-03-01T04:57:33;98833.78;;;23.48
75428;BMP280;64008;55.612;37.698;2023-03-01T04:59:58;98847.16;;;23.32
75428;BMP280;64008;55.612;37.698;2023-03-01T05:02:24;98845.94;;;23.41
75428;BMP280;64008;55.612;37.698;2023-03-01T05:04:49;98840.88;;;23.52
75428;BMP280;64008;55.612;37.698;2023-03-01T05:07:15;98843.09;;;23.50
75428;BMP280;64008;55.612;37.698;2023-03-01T05:09:45;98857.19;;;23.44
75428;BMP280;64008;55.612;37.698;2023-03-01T05:12:12;98848.97;;;23.40
75428;BMP280;64008;55.612;37.698;2023-03-01T05:14:38;98845.34;;;23.60
75428;BMP280;64008;55.612;37.698;2023-03-01T05:17:04;98845.47;;;23.52
75428;BMP280;64008;55.612;37.698;2023-03-01T05:19:30;98847.75;;;23.50
75428;BMP280;64008;55.612;37.698;2023-03-01T05:21:57;98851.78;;;23.44
75428;BMP280;64008;55.612;37.698;2023-03-01T05:24:34;98848.75;;;23.45
75428;BMP280;64008;55.612;37.698;2023-03-01T05:27:01;98859.38;;;23.54
75428;BMP280;64008;55.612;37.698;2023-03-01T05:29:27;98865.97;;;23.69
75428;BMP280;64008;55.612;37.698;2023-03-01T05:31:59;98873.31;;;23.56
75428;BMP280;64008;55.612;37.698;2023-03-01T05:34:31;98873.22;;;23.52
75428;BMP280;64008;55.612;37.698;2023-03-01T05:36:57;98878.81;;;23.72
75428;BMP280;64008;55.612;37.698;2023-03-01T05:39:25;98881.81;;;23.82
75428;BMP280;64008;55.612;37.698;2023-03-01T05:41:55;98879.34;;;23.65
75428;BMP280;64008;55.612;37.698;2023-03-01T05:44:21;98885.13;;;23.39
75428;BMP280;64008;55.612;37.698;2023-03-01T05:46:47;98883.91;;;23.49
75428;BMP280;64008;55.612;37.698;2023-03-01T05:49:14;98877.84;;;23.39
75428;BMP280;64008;55.612;37.698;2023-03-01T05:51:40;98889.03;;;23.66
75428;BMP280;64008;55.612;37.698;2023-03-01T05:54:06;98878.91;;;23.75
75428;BMP280;64008;55.612;37.698;2023-03-01T05:56:35;98898.13;;;23.61
75428;BMP280;64008;55.612;37.698;2023-03-01T05:59:02;98902.78;;;23.49
75428;BMP280;64008;55.612;37.698;2023-03-01T06:01:28;98893.31;;;23.42
75428;BMP280;64008;55.612;37.698;2023-03-01T06:03:55;98891.22;;;23.36
75428;BMP280;64008;55.612;37.698;2023-03-01T06:06:22;98891.09;;;23.45
75428;BMP280;64008;55.612;37.698;2023-03-01T06:08:47;98898.06;;;23.46
75428;BMP280;64008;55.612;37.698;2023-03-01T06:11:13;98903.56;;;23.49
75428;BMP280;64008;55.612;37.698;2023-03-01T06:13:38;98913.31;;;23.54
75428;BMP280;64008;55.612;37.698;2023-03-01T06:16:07;98906.38;;;23.53
75428;BMP280;64008;55.612;37.698;2023-03-01T06:18:33;98895.44;;;23.61
75428;BMP280;64008;55.612;37.698;2023-03-01T06:20:58;98896.72;;;23.52
75428;BMP280;64008;55.612;37.698;2023-03-01T06:23:25;98896.00;;;23.67
75428;BMP280;64008;55.612;37.698;2023-03-01T06:25:50;98905.31;;;23.57
75428;BMP280;64008;55.612;37.698;2023-03-01T06:28:16;98906.69;;;23.51
75428;BMP280;64008;55.612;37.698;2023-03-01T06:30:42;98919.97;;;23.56
75428;BMP280;64008;55.612;37.698;2023-03-01T06:33:07;98920.97;;;23.52
75428;BMP280;64008;55.612;37.698;2023-03-01T06:35:33;98914.97;;;23.83
75428;BMP280;64008;55.612;37.698;2023-03-01T06:38:01;98914.69;;;23.88
75428;BMP280;64008;55.612;37.698;2023-03-01T06:40:27;98927.25;;;24.08
75428;BMP280;64008;55.612;37.698;2023-03-01T06:42:52;98915.88;;;24.31
75428;BMP280;64008;55.612;37.698;2023-03-01T06:45:19;98913.91;;;24.00
75428;BMP280;64008;55.612;37.698;2023-03-01T06:47:45;98933.03;;;23.95
75428;BMP280;64008;55.612;37.698;2023-03-01T06:50:11;98922.78;;;24.00
75428;BMP280;64008;55.612;37.698;2023-03-01T06:52:37;98926.91;;;24.10
75428;BMP280;64008;55.612;37.698;2023-03-01T06:55:03;98939.84;;;16.44
75428;BMP280;64008;55.612;37.698;2023-03-01T06:57:29;98945.03;;;12.40
75428;BMP280;64008;55.612;37.698;2023-03-01T06:59:54;98942.47;;;11.11
75428;BMP280;64008;55.612;37.698;2023-03-01T07:02:20;98944.91;;;12.93
75428;BMP280;64008;55.612;37.698;2023-03-01T07:04:46;98951.75;;;10.47
75428;BMP280;64008;55.612;37.698;2023-03-01T07:07:11;98951.19;;;9.27
75428;BMP280;64008;55.612;37.698;2023-03-01T07:09:37;98946.81;;;8.40
75428;BMP280;64008;55.612;37.698;2023-03-01T07:12:03;98947.06;;;9.31
75428;BMP280;64008;55.612;37.698;2023-03-01T07:14:28;98956.47;;;12.03
75428;BMP280;64008;55.612;37.698;2023-03-01T07:16:54;98930.53;;;14.22
75428;BMP280;64008;55.612;37.698;2023-03-01T07:19:20;98943.22;;;15.25
75428;BMP280;64008;55.612;37.698;2023-03-01T07:21:46;98962.00;;;15.44
75428;BMP280;64008;55.612;37.698;2023-03-01T07:24:12;98946.47;;;15.80
75428;BMP280;64008;55.612;37.698;2023-03-01T07:26:37;98961.50;;;15.95
75428;BMP280;64008;55.612;37.698;2023-03-01T07:29:04;98952.47;;;16.15
75428;BMP280;64008;55.612;37.698;2023-03-01T07:31:30;98968.09;;;16.27
75428;BMP280;64008;55.612;37.698;2023-03-01T07:33:56;98963.66;;;16.17
75428;BMP280;64008;55.612;37.698;2023-03-01T07:36:22;98961.41;;;16.24
75428;BMP280;64008;55.612;37.698;2023-03-01T07:38:47;98957.91;;;16.29
75428;BMP280;64008;55.612;37.698;2023-03-01T07:41:13;98966.94;;;16.33
75428;BMP280;64008;55.612;37.698;2023-03-01T07:43:39;98969.63;;;16.09
75428;BMP280;64008;55.612;37.698;2023-03-01T07:46:05;98963.25;;;16.05
75428;BMP280;64008;55.612;37.698;2023-03-01T07:48:32;98967.88;;;16.18
75428;BMP280;64008;55.612;37.698;2023-03-01T07:51:02;98970.53;;;15.99
75428;BMP280;64008;55.612;37.698;2023-03-01T07:53:28;98979.09;;;15.91
75428;BMP280;64008;55.612;37.698;2023-03-01T07:56:06;98965.97;;;15.75
75428;BMP280;64008;55.612;37.698;2023-03-01T07:58:35;98970.44;;;15.80
75428;BMP280;64008;55.612;37.698;2023-03-01T08:01:09;98972.56;;;15.83
75428;BMP280;64008;55.612;37.698;2023-03-01T08:03:36;98968.06;;;15.78
75428;BMP280;64008;55.612;37.698;2023-03-01T08:06:03;98959.28;;;15.78
75428;BMP280;64008;55.612;37.698;2023-03-01T08:08:30;98968.56;;;15.80
75428;BMP280;64008;55.612;37.698;2023-03-01T08:11:00;98966.97;;;15.79
75428;BMP280;64008;55.612;37.698;2023-03-01T08:13:27;98962.00;;;15.73
75428;BMP280;64008;55.612;37.698;2023-03-01T08:15:52;98968.44;;;15.67
75428;BMP280;64008;55.612;37.698;2023-03-01T08:18:19;98970.75;;;15.78
75428;BMP280;64008;55.612;37.698;2023-03-01T08:20:45;98983.81;;;15.75
75428;BMP280;64008;55.612;37.698;2023-03-01T08:23:11;98992.69;;;15.94
75428;BMP280;64008;55.612;37.698;2023-03-01T08:25:37;98984.31;;;16.06
75428;BMP280;64008;55.612;37.698;2023-03-01T08:28:03;98974.59;;;16.15
75428;BMP280;64008;55.612;37.698;2023-03-01T08:30:29;98983.69;;;16.57
75428;BMP280;64008;55.612;37.698;2023-03-01T08:32:55;98976.06;;;16.27
75428;BMP280;64008;55.612;37.698;2023-03-01T08:35:21;98981.28;;;16.37
75428;BMP280;64008;55.612;37.698;2023-03-01T08:37:47;98988.06;;;16.48
75428;BMP280;64008;55.612;37.698;2023-03-01T08:40:13;98981.97;;;16.85
75428;BMP280;64008;55.612;37.698;2023-03-01T08:42:40;98993.16;;;16.44
75428;BMP280;64008;55.612;37.698;2023-03-01T08:45:07;98975.38;;;16.16
75428;BMP280;64008;55.612;37.698;2023-03-01T08:47:32;98989.72;;;15.96
75428;BMP280;64008;55.612;37.698;2023-03-01T08:49:59;98987.44;;;16.08
75428;BMP280;64008;55.612;37.698;2023-03-01T08:52:25;98990.00;;;16.18
75428;BMP280;64008;55.612;37.698;2023-03-01T08:54:51;99008.66;;;16.18
75428;BMP280;64008;55.612;37.698;2023-03-01T08:57:17;99004.06;;;16.24
75428;BMP280;64008;55.612;37.698;2023-03-01T08:59:43;98984.78;;;16.32
75428;BMP280;64008;55.612;37.698;2023-03-01T09:02:13;98993.28;;;16.34
75428;BMP280;64008;55.612;37.698;2023-03-01T09:04:39;99004.91;;;16.19
75428;BMP280;64008;55.612;37.698;2023-03-01T09:07:05;99007.22;;;16.31
75428;BMP280;64008;55.612;37.698;2023-03-01T09:09:31;99001.63;;;16.28
75428;BMP280;64008;55.612;37.698;2023-03-01T09:11:57;98998.88;;;16.38
75428;BMP280;64008;55.612;37.698;2023-03-01T09:14:22;99008.34;;;16.49
75428;BMP280;64008;55.612;37.698;2023-03-01T09:16:48;98992.41;;;16.44
75428;BMP280;64008;55.612;37.698;2023-03-01T09:19:13;99001.84;;;16.74
75428;BMP280;64008;55.612;37.698;2023-03-01T09:21:39;99002.44;;;16.90
75428;BMP280;64008;55.612;37.698;2023-03-01T09:24:06;99004.25;;;16.76
75428;BMP280;64008;55.612;37.698;2023-03-01T09:26:36;99006.13;;;16.75
75428;BMP280;64008;55.612;37.698;2023-03-01T09:29:02;99013.53;;;16.78
75428;BMP280;64008;55.612;37.698;2023-03-01T09:31:27;99002.25;;;16.43
75428;BMP280;64008;55.612;37.698;2023-03-01T09:33:53;98998.00;;;16.61
75428;BMP280;64008;55.612;37.698;2023-03-01T09:36:20;98992.47;;;16.77
75428;BMP280;64008;55.612;37.698;2023-03-01T09:38:47;99004.75;;;16.97
75428;BMP280;64008;55.612;37.698;2023-03-01T09:44:03;99007.41;;;17.16
75428;BMP280;64008;55.612;37.698;2023-03-01T09:46:33;98991.22;;;17.26
75428;BMP280;64008;55.612;37.698;2023-03-01T09:49:13;99004.84;;;17.43
75428;BMP280;64008;55.612;37.698;2023-03-01T09:51:39;98997.78;;;17.15
75428;BMP280;64008;55.612;37.698;2023-03-01T09:54:06;98997.38;;;17.07
75428;BMP280;64008;55.612;37.698;2023-03-01T09:56:37;98999.75;;;17.09
75428;BMP280;64008;55.612;37.698;2023-03-01T10:04:27;99012.47;;;17.17
75428;BMP280;64008;55.612;37.698;2023-03-01T10:09:33;99014.97;;;17.08
75428;BMP280;64008;55.612;37.698;2023-03-01T10:12:01;99012.09;;;17.05
75428;BMP280;64008;55.612;37.698;2023-03-01T10:14:32;99016.63;;;17.42
75428;BMP280;64008;55.612;37.698;2023-03-01T10:17:08;99016.25;;;17.30
75428;BMP280;64008;55.612;37.698;2023-03-01T10:19:37;99019.38;;;17.51
75428;BMP280;64008;55.612;37.698;2023-03-01T10:22:19;99022.44;;;17.12
75428;BMP280;64008;55.612;37.698;2023-03-01T10:24:47;99015.19;;;17.31
75428;BMP280;64008;55.612;37.698;2023-03-01T10:27:23;99018.13;;;17.29
75428;BMP280;64008;55.612;37.698;2023-03-01T10:32:34;99037.97;;;17.42
75428;BMP280;64008;55.612;37.698;2023-03-01T10:34:59;99044.41;;;17.22
75428;BMP280;64008;55.612;37.698;2023-03-01T10:37:25;99027.69;;;17.17
75428;BMP280;64008;55.612;37.698;2023-03-01T10:40:03;99032.66;;;17.04
75428;BMP280;64008;55.612;37.698;2023-03-01T10:42:45;99043.31;;;16.85
75428;BMP280;64008;55.612;37.698;2023-03-01T10:45:30;99027.81;;;16.69
75428;BMP280;64008;55.612;37.698;2023-03-01T10:48:19;99043.00;;;16.68
75428;BMP280;64008;55.612;37.698;2023-03-01T10:50:57;99051.22;;;16.72
75428;BMP280;64008;55.612;37.698;2023-03-01T10:53:34;99033.88;;;16.50
75428;BMP280;64008;55.612;37.698;2023-03-01T10:56:12;99058.97;;;16.49
75428;BMP280;64008;55.612;37.698;2023-03-01T10:58:57;99044.38;;;16.65
75428;BMP280;64008;55.612;37.698;2023-03-01T11:06:33;99035.47;;;16.75
75428;BMP280;64008;55.612;37.698;2023-03-01T11:11:39;99045.06;;;16.71
75428;BMP280;64008;55.612;37.698;2023-03-01T11:14:16;99045.47;;;16.83
75428;BMP280;64008;55.612;37.698;2023-03-01T11:16:45;99042.25;;;17.05
75428;BMP280;64008;55.612;37.698;2023-03-01T11:21:39;99038.56;;;17.01
75428;BMP280;64008;55.612;37.698;2023-03-01T11:24:11;99045.91;;;17.09
75428;BMP280;64008;55.612;37.698;2023-03-01T11:26:41;99048.38;;;17.06
75428;BMP280;64008;55.612;37.698;2023-03-01T11:32:09;99047.94;;;16.56
75428;BMP280;64008;55.612;37.698;2023-03-01T11:34:58;99026.94;;;16.92
75428;BMP280;64008;55.612;37.698;2023-03-01T11:37:33;99031.19;;;16.93
75428;BMP280;64008;55.612;37.698;2023-03-01T11:40:23;99046.19;;;16.70
75428;BMP280;64008;55.612;37.698;2023-03-01T11:43:20;99039.59;;;16.62
75428;BMP280;64008;55.612;37.698;2023-03-01T11:50:55;99052.94;;;16.14
75428;BMP280;64008;55.612;37.698;2023-03-01T11:53:50;99073.28;;;16.05
75428;BMP280;64008;55.612;37.698;2023-03-01T12:04:48;99061.78;;;16.34
75428;BMP280;64008;55.612;37.698;2023-03-01T12:10:26;99053.56;;;16.97
75428;BMP280;64008;55.612;37.698;2023-03-01T12:13:17;99058.09;;;17.35
75428;BMP280;64008;55.612;37.698;2023-03-01T12:21:55;99065.06;;;16.74
75428;BMP280;64008;55.612;37.698;2023-03-01T12:35:48;99059.34;;;16.61
75428;BMP280;64008;55.612;37.698;2023-03-01T12:44:30;99055.13;;;13.67
75428;BMP280;64008;55.612;37.698;2023-03-01T12:49:26;99054.84;;;15.01
75428;BMP280;64008;55.612;37.698;2023-03-01T12:52:00;99069.38;;;15.92
75428;BMP280;64008;55.612;37.698;2023-03-01T12:54:30;99054.59;;;16.58
75428;BMP280;64008;55.612;37.698;2023-03-01T12:56:59;99066.84;;;16.11
75428;BMP280;64008;55.612;37.698;2023-03-01T12:59:31;99077.94;;;15.94
75428;BMP280;64008;55.612;37.698;2023-03-01T13:09:55;99068.25;;;14.70
75428;BMP280;64008;55.612;37.698;2023-03-01T13:13:23;99062.16;;;14.74
75428;BMP280;64008;55.612;37.698;2023-03-01T13:15:47;99060.22;;;15.40
75428;BMP280;64008;55.612;37.698;2023-03-01T13:20:49;99065.75;;;14.99
75428;BMP280;64008;55.612;37.698;2023-03-01T13:33:47;99058.47;;;16.90
75428;BMP280;64008;55.612;37.698;2023-03-01T13:47:38;99055.06;;;15.14
75428;BMP280;64008;55.612;37.698;2023-03-01T13:49:48;99075.13;;;14.86
75428;BMP280;64008;55.612;37.698;2023-03-01T13:54:50;99053.84;;;14.86
75428;BMP280;64008;55.612;37.698;2023-03-01T13:57:21;99045.81;;;15.02
75428;BMP280;64008;55.612;37.698;2023-03-01T13:59:48;99067.78;;;15.17
75428;BMP280;64008;55.612;37.698;2023-03-01T14:02:14;99055.53;;;15.16
75428;BMP280;64008;55.612;37.698;2023-03-01T14:04:40;99059.22;;;14.71
75428;BMP280;64008;55.612;37.698;2023-03-01T14:07:19;99066.56;;;14.99
75428;BMP280;64008;55.612;37.698;2023-03-01T14:09:48;99076.59;;;15.13
75428;BMP280;64008;55.612;37.698;2023-03-01T14:15:26;99041.06;;;14.93
75428;BMP280;64008;55.612;37.698;2023-03-01T14:20:40;99041.78;;;14.39
75428;BMP280;64008;55.612;37.698;2023-03-01T14:23:15;99042.56;;;14.55
75428;BMP280;64008;55.612;37.698;2023-03-01T14:26:01;99063.50;;;14.67
75428;BMP280;64008;55.612;37.698;2023-03-01T14:28:31;99042.19;;;14.77
75428;BMP280;64008;55.612;37.698;2023-03-01T14:31:03;99050.13;;;14.87
75428;BMP280;64008;55.612;37.698;2023-03-01T14:33:33;99033.81;;;14.39
75428;BMP280;64008;55.612;37.698;2023-03-01T14:36:04;99032.75;;;14.40
75428;BMP280;64008;55.612;37.698;2023-03-01T14:38:36;99027.22;;;14.16
75428;BMP280;64008;55.612;37.698;2023-03-01T14:41:14;99022.75;;;13.70
75428;BMP280;64008;55.612;37.698;2023-03-01T14:43:50;99031.75;;;14.26
75428;BMP280;64008;55.612;37.698;2023-03-01T14:46:24;99027.94;;;12.46
75428;BMP280;64008;55.612;37.698;2023-03-01T14:48:53;99028.03;;;11.86
75428;BMP280;64008;55.612;37.698;2023-03-01T14:51:20;99042.13;;;11.92
75428;BMP280;64008;55.612;37.698;2023-03-01T14:53:46;99023.97;;;12.43
75428;BMP280;64008;55.612;37.698;2023-03-01T14:56:13;99020.47;;;12.38
75428;BMP280;64008;55.612;37.698;2023-03-01T14:58:39;99023.66;;;12.40
75428;BMP280;64008;55.612;37.698;2023-03-01T15:01:05;99023.38;;;11.99
75428;BMP280;64008;55.612;37.698;2023-03-01T15:03:46;99018.81;;;11.89
75428;BMP280;64008;55.612;37.698;2023-03-01T15:06:19;99023.56;;;11.87
75428;BMP280;64008;55.612;37.698;2023-03-01T15:08:51;99013.34;;;12.01
75428;BMP280;64008;55.612;37.698;2023-03-01T15:11:28;99009.63;;;11.97
75428;BMP280;64008;55.612;37.698;2023-03-01T15:13:54;99009.91;;;12.00
75428;BMP280;64008;55.612;37.698;2023-03-01T15:16:30;99045.75;;;11.81
75428;BMP280;64008;55.612;37.698;2023-03-01T15:18:59;99026.16;;;11.82
75428;BMP280;64008;55.612;37.698;2023-03-01T15:21:33;99041.78;;;12.58
75428;BMP280;64008;55.612;37.698;2023-03-01T15:26:35;99026.59;;;12.06
75428;BMP280;64008;55.612;37.698;2023-03-01T15:29:02;99033.25;;;12.08
75428;BMP280;64008;55.612;37.698;2023-03-01T15:31:31;99035.75;;;11.88
75428;BMP280;64008;55.612;37.698;2023-03-01T15:34:23;99017.00;;;11.67
75428;BMP280;64008;55.612;37.698;2023-03-01T15:36:50;99025.50;;;11.97
75428;BMP280;64008;55.612;37.698;2023-03-01T15:39:39;99028.31;;;11.90
75428;BMP280;64008;55.612;37.698;2023-03-01T15:45:28;99016.69;;;11.91
75428;BMP280;64008;55.612;37.698;2023-03-01T15:48:19;99025.88;;;11.83
75428;BMP280;64008;55.612;37.698;2023-03-01T15:50:54;99021.81;;;12.03
75428;BMP280;64008;55.612;37.698;2023-03-01T15:53:20;99050.16;;;11.75
75428;BMP280;64008;55.612;37.698;2023-03-01T15:55:45;99024.06;;;11.29
75428;BMP280;64008;55.612;37.698;2023-03-01T15:58:22;99022.72;;;11.81
75428;BMP280;64008;55.612;37.698;2023-03-01T16:00:49;99029.00;;;11.48
75428;BMP280;64008;55.612;37.698;2023-03-01T16:03:21;99024.91;;;11.62
75428;BMP280;64008;55.612;37.698;2023-03-01T16:05:48;99016.63;;;11.54
75428;BMP280;64008;55.612;37.698;2023-03-01T16:08:14;99028.41;;;11.95
75428;BMP280;64008;55.612;37.698;2023-03-01T16:10:41;99007.41;;;12.21
75428;BMP280;64008;55.612;37.698;2023-03-01T16:13:09;99024.34;;;11.82